ΕΜΥ, Εθνική Μετεωρολογική Υπηρεσία - Δελτία Καιρού, Προγνώσεις

ΑΕΡΟΝΑΥΤΙΛΙΑ

GREEK AIRPORTS CODES

LGKF 211750Z 28005KT 9999 SCT018 17/12 Q1012=

EUROPEAN AIRPORTS CODES

UUWW 212330Z 08006G11MPS CAVOK 13/08 Q1009 R06/290050 NOSIG=